aviador You're here:

OMDW Decoded Metar

in
Report Time2018-06-25 09:00:00
UTC Time2018-06-25 09:54:27
Flight Rules mvfr MVFR
Wind310° at 14 kt
W.Decomp.*RWY 30: 13.8 kt HW 2.4 kt RCW
W.Rank310° ranks 3
Current wind is above 310° avg. (10.8)
Visibility7000 m
Phenomena:N/A
Clouds:N/A
Expected CloudBase > 8,000 ft AGL from Temp-Dew spread
CeilingNone
Temp37°C
Dew Point17°C (31% RH)
Heat Index38.0°C
AAT34.4°C
QNH1001 hPa
Raw Report
METAR OMDW 250900Z 31014KT 7000 NSC 37/17 Q1001 NOSIG=

Extra information for OMDW:More info

Social comments